NCAR-RAP Real-Time Weather Data

Output produced by METARs form (23 January 2018  15:42 UTC)
found at http://weather.rap.ucar.edu/surface/
 
RJAA 231530Z 16004KT CAVOK M02/M09 Q1007 BECMG 30006KT
 
 
RJAH 231500Z 21004KT 9999 FEW040 00/M10 Q1006
 
RJGG 231530Z 26024KT 9999 FEW050 BKN/// 03/M07 Q1013 BECMG 28026KT
 
RJNK 231500Z 28021KT 4000 -SHSN FEW008 BKN015 BKN030 01/M04 Q1011
 
RJNT 231200Z 20006KT 8000 -SHSN FEW005 SCT020 BKN030 M01/M01 Q1011
 
RJNW 231000Z 32005KT 250V010 9999 -SHSN FEW000 SCT005 BKN010 M02/M03 Q1009
 
 
 
 
RJTT 231530Z 24015KT 9999 FEW060 BKN/// 04/M10 Q1007 NOSIG